sensor_id;sensor_type;location;lat;lon;timestamp;pressure;altitude;pressure_sealevel;temperature;humidity
66560;BME280;53413;49.878;8.142;2023-12-20T00:02:21;99944.13;;;5.97;100.00
66560;BME280;53413;49.878;8.142;2023-12-20T00:04:46;99944.09;;;5.98;100.00
66560;BME280;53413;49.878;8.142;2023-12-20T00:07:12;99949.31;;;5.98;100.00
66560;BME280;53413;49.878;8.142;2023-12-20T00:09:37;99944.09;;;5.98;100.00
66560;BME280;53413;49.878;8.142;2023-12-20T00:12:03;99943.22;;;5.98;100.00
66560;BME280;53413;49.878;8.142;2023-12-20T00:14:28;99945.88;;;5.96;100.00
66560;BME280;53413;49.878;8.142;2023-12-20T00:16:53;99940.69;;;5.96;100.00
66560;BME280;53413;49.878;8.142;2023-12-20T00:19:19;99945.00;;;5.96;100.00
66560;BME280;53413;49.878;8.142;2023-12-20T00:21:44;99945.94;;;5.95;100.00
66560;BME280;53413;49.878;8.142;2023-12-20T00:24:09;99942.41;;;5.97;100.00
66560;BME280;53413;49.878;8.142;2023-12-20T00:26:34;99936.28;;;6.00;100.00
66560;BME280;53413;49.878;8.142;2023-12-20T00:29:00;99942.34;;;5.99;100.00
66560;BME280;53413;49.878;8.142;2023-12-20T00:31:25;99934.59;;;5.97;100.00
66560;BME280;53413;49.878;8.142;2023-12-20T00:33:50;99934.53;;;5.99;100.00
66560;BME280;53413;49.878;8.142;2023-12-20T00:36:16;99927.63;;;5.98;100.00
66560;BME280;53413;49.878;8.142;2023-12-20T00:38:41;99925.06;;;5.96;100.00
66560;BME280;53413;49.878;8.142;2023-12-20T00:41:06;99924.16;;;5.99;100.00
66560;BME280;53413;49.878;8.142;2023-12-20T00:43:32;99916.34;;;5.99;100.00
66560;BME280;53413;49.878;8.142;2023-12-20T00:45:57;99931.09;;;6.00;100.00
66560;BME280;53413;49.878;8.142;2023-12-20T00:48:22;99924.16;;;5.99;100.00
66560;BME280;53413;49.878;8.142;2023-12-20T00:50:48;99922.41;;;6.01;100.00
66560;BME280;53413;49.878;8.142;2023-12-20T00:53:13;99915.47;;;6.00;100.00
66560;BME280;53413;49.878;8.142;2023-12-20T00:55:38;99912.00;;;6.01;100.00
66560;BME280;53413;49.878;8.142;2023-12-20T00:58:06;99908.53;;;5.99;100.00
66560;BME280;53413;49.878;8.142;2023-12-20T01:00:32;99904.25;;;5.99;100.00
66560;BME280;53413;49.878;8.142;2023-12-20T01:02:57;99905.91;;;6.02;100.00
66560;BME280;53413;49.878;8.142;2023-12-20T01:05:23;99904.19;;;6.01;100.00
66560;BME280;53413;49.878;8.142;2023-12-20T01:07:48;99905.88;;;6.04;100.00
66560;BME280;53413;49.878;8.142;2023-12-20T01:10:14;99912.78;;;6.05;100.00
66560;BME280;53413;49.878;8.142;2023-12-20T01:12:39;99907.63;;;6.03;100.00
66560;BME280;53413;49.878;8.142;2023-12-20T01:15:05;99905.88;;;6.04;100.00
66560;BME280;53413;49.878;8.142;2023-12-20T01:17:30;99900.66;;;6.05;100.00
66560;BME280;53413;49.878;8.142;2023-12-20T01:19:56;99905.03;;;6.03;100.00
66560;BME280;53413;49.878;8.142;2023-12-20T01:22:21;99905.03;;;6.01;100.00
66560;BME280;53413;49.878;8.142;2023-12-20T01:24:46;99918.03;;;6.03;100.00
66560;BME280;53413;49.878;8.142;2023-12-20T01:27:12;99912.81;;;6.03;100.00
66560;BME280;53413;49.878;8.142;2023-12-20T01:29:37;99904.16;;;6.03;100.00
66560;BME280;53413;49.878;8.142;2023-12-20T01:32:02;99896.34;;;6.04;100.00
66560;BME280;53413;49.878;8.142;2023-12-20T01:34:28;99902.41;;;6.03;100.00
66560;BME280;53413;49.878;8.142;2023-12-20T01:36:53;99904.13;;;6.04;100.00
66560;BME280;53413;49.878;8.142;2023-12-20T01:39:18;99908.47;;;6.05;100.00
66560;BME280;53413;49.878;8.142;2023-12-20T01:41:44;99906.69;;;6.06;100.00
66560;BME280;53413;49.878;8.142;2023-12-20T01:44:10;99907.63;;;6.03;100.00
66560;BME280;53413;49.878;8.142;2023-12-20T01:46:36;99905.09;;;6.00;100.00
66560;BME280;53413;49.878;8.142;2023-12-20T01:49:01;99915.44;;;6.03;100.00
66560;BME280;53413;49.878;8.142;2023-12-20T01:51:27;99911.06;;;6.04;100.00
66560;BME280;53413;49.878;8.142;2023-12-20T01:53:55;99913.72;;;6.02;100.00
66560;BME280;53413;49.878;8.142;2023-12-20T01:56:22;99920.69;;;6.00;100.00
66560;BME280;53413;49.878;8.142;2023-12-20T01:58:48;99924.16;;;6.00;100.00
66560;BME280;53413;49.878;8.142;2023-12-20T02:01:13;99926.72;;;6.02;100.00
66560;BME280;53413;49.878;8.142;2023-12-20T02:03:41;99911.94;;;6.04;100.00
66560;BME280;53413;49.878;8.142;2023-12-20T02:06:07;99916.25;;;6.05;100.00
66560;BME280;53413;49.878;8.142;2023-12-20T02:08:33;99924.91;;;6.06;100.00
66560;BME280;53413;49.878;8.142;2023-12-20T02:10:59;99914.53;;;6.04;100.00
66560;BME280;53413;49.878;8.142;2023-12-20T02:13:25;99920.63;;;6.03;100.00
66560;BME280;53413;49.878;8.142;2023-12-20T02:15:52;99910.22;;;6.03;100.00
66560;BME280;53413;49.878;8.142;2023-12-20T02:18:17;99899.03;;;5.99;100.00
66560;BME280;53413;49.878;8.142;2023-12-20T02:20:42;99895.56;;;5.97;100.00
66560;BME280;53413;49.878;8.142;2023-12-20T02:23:08;99892.94;;;5.99;100.00
66560;BME280;53413;49.878;8.142;2023-12-20T02:25:33;99892.16;;;5.95;100.00
66560;BME280;53413;49.878;8.142;2023-12-20T02:27:59;99895.56;;;5.97;100.00
66560;BME280;53413;49.878;8.142;2023-12-20T02:30:24;99905.19;;;5.94;100.00
66560;BME280;53413;49.878;8.142;2023-12-20T02:32:49;99900.00;;;5.94;100.00
66560;BME280;53413;49.878;8.142;2023-12-20T02:35:15;99900.88;;;5.91;100.00
66560;BME280;53413;49.878;8.142;2023-12-20T02:37:40;99898.34;;;5.90;100.00
66560;BME280;53413;49.878;8.142;2023-12-20T02:40:07;99906.13;;;5.90;100.00
66560;BME280;53413;49.878;8.142;2023-12-20T02:42:33;99906.13;;;5.90;100.00
66560;BME280;53413;49.878;8.142;2023-12-20T02:44:58;99913.00;;;5.92;100.00
66560;BME280;53413;49.878;8.142;2023-12-20T02:47:23;99907.75;;;5.95;100.00
66560;BME280;53413;49.878;8.142;2023-12-20T02:49:49;99916.34;;;6.00;100.00
66560;BME280;53413;49.878;8.142;2023-12-20T02:52:14;99913.66;;;6.04;100.00
66560;BME280;53413;49.878;8.142;2023-12-20T02:54:40;99915.22;;;6.12;100.00
66560;BME280;53413;49.878;8.142;2023-12-20T02:57:06;99902.09;;;6.19;100.00
66560;BME280;53413;49.878;8.142;2023-12-20T02:59:31;99907.19;;;6.23;100.00
66560;BME280;53413;49.878;8.142;2023-12-20T03:01:57;99905.31;;;6.30;100.00
66560;BME280;53413;49.878;8.142;2023-12-20T03:04:22;99894.81;;;6.33;100.00
66560;BME280;53413;49.878;8.142;2023-12-20T03:06:47;99906.88;;;6.37;100.00
66560;BME280;53413;49.878;8.142;2023-12-20T03:09:13;99916.41;;;6.38;100.00
66560;BME280;53413;49.878;8.142;2023-12-20T03:11:38;99917.28;;;6.37;100.00
66560;BME280;53413;49.878;8.142;2023-12-20T03:14:04;99925.03;;;6.40;100.00
66560;BME280;53413;49.878;8.142;2023-12-20T03:16:29;99926.78;;;6.40;100.00
66560;BME280;53413;49.878;8.142;2023-12-20T03:18:56;99927.66;;;6.40;100.00
66560;BME280;53413;49.878;8.142;2023-12-20T03:21:21;99929.31;;;6.43;100.00
66560;BME280;53413;49.878;8.142;2023-12-20T03:23:49;99930.19;;;6.43;100.00
66560;BME280;53413;49.878;8.142;2023-12-20T03:26:15;99943.19;;;6.43;100.00
66560;BME280;53413;49.878;8.142;2023-12-20T03:28:40;99939.63;;;6.47;100.00
66560;BME280;53413;49.878;8.142;2023-12-20T03:31:05;99953.50;;;6.48;100.00
66560;BME280;53413;49.878;8.142;2023-12-20T03:33:31;99956.94;;;6.49;100.00
66560;BME280;53413;49.878;8.142;2023-12-20T03:35:56;99964.75;;;6.49;100.00
66560;BME280;53413;49.878;8.142;2023-12-20T03:38:22;99953.47;;;6.50;100.00
66560;BME280;53413;49.878;8.142;2023-12-20T03:40:49;99956.06;;;6.50;100.00
66560;BME280;53413;49.878;8.142;2023-12-20T03:43:15;99953.47;;;6.50;100.00
66560;BME280;53413;49.878;8.142;2023-12-20T03:45:41;99952.56;;;6.51;100.00
66560;BME280;53413;49.878;8.142;2023-12-20T03:48:07;99960.34;;;6.52;100.00
66560;BME280;53413;49.878;8.142;2023-12-20T03:50:32;99965.47;;;6.55;100.00
66560;BME280;53413;49.878;8.142;2023-12-20T03:52:57;99969.75;;;6.59;100.00
66560;BME280;53413;49.878;8.142;2023-12-20T03:55:22;99961.88;;;6.61;100.00
66560;BME280;53413;49.878;8.142;2023-12-20T03:57:48;99966.97;;;6.66;100.00
66560;BME280;53413;49.878;8.142;2023-12-20T04:00:13;99967.81;;;6.68;100.00
66560;BME280;53413;49.878;8.142;2023-12-20T04:02:40;99963.44;;;6.70;100.00
66560;BME280;53413;49.878;8.142;2023-12-20T04:05:06;99960.84;;;6.68;100.00
66560;BME280;53413;49.878;8.142;2023-12-20T04:07:32;99957.28;;;6.72;100.00
66560;BME280;53413;49.878;8.142;2023-12-20T04:09:58;99958.25;;;6.68;100.00
66560;BME280;53413;49.878;8.142;2023-12-20T04:12:23;99972.13;;;6.69;100.00
66560;BME280;53413;49.878;8.142;2023-12-20T04:14:48;99974.63;;;6.73;100.00
66560;BME280;53413;49.878;8.142;2023-12-20T04:17:15;99979.78;;;6.75;100.00
66560;BME280;53413;49.878;8.142;2023-12-20T04:19:41;99980.69;;;6.74;100.00
66560;BME280;53413;49.878;8.142;2023-12-20T04:22:07;99999.81;;;6.73;100.00
66560;BME280;53413;49.878;8.142;2023-12-20T04:24:32;99995.53;;;6.70;100.00
66560;BME280;53413;49.878;8.142;2023-12-20T04:26:57;99995.78;;;6.58;100.00
66560;BME280;53413;49.878;8.142;2023-12-20T04:29:23;99989.13;;;6.44;100.00
66560;BME280;53413;49.878;8.142;2023-12-20T04:31:48;100000.63;;;6.34;100.00
66560;BME280;53413;49.878;8.142;2023-12-20T04:34:16;99997.22;;;6.32;100.00
66560;BME280;53413;49.878;8.142;2023-12-20T04:36:42;100010.22;;;6.32;100.00
66560;BME280;53413;49.878;8.142;2023-12-20T04:39:07;100012.81;;;6.34;100.00
66560;BME280;53413;49.878;8.142;2023-12-20T04:41:33;100013.66;;;6.34;100.00
66560;BME280;53413;49.878;8.142;2023-12-20T04:43:58;100025.75;;;6.37;100.00
66560;BME280;53413;49.878;8.142;2023-12-20T04:46:23;100019.63;;;6.38;100.00
66560;BME280;53413;49.878;8.142;2023-12-20T04:48:49;100022.19;;;6.42;100.00
66560;BME280;53413;49.878;8.142;2023-12-20T04:51:14;100032.44;;;6.49;100.00
66560;BME280;53413;49.878;8.142;2023-12-20T04:53:39;100044.78;;;6.40;100.00
66560;BME280;53413;49.878;8.142;2023-12-20T04:56:05;100052.78;;;6.31;100.00
66560;BME280;53413;49.878;8.142;2023-12-20T04:58:30;100044.53;;;6.09;100.00
66560;BME280;53413;49.878;8.142;2023-12-20T05:00:56;100043.13;;;5.89;100.00
66560;BME280;53413;49.878;8.142;2023-12-20T05:03:21;100052.13;;;5.71;100.00
66560;BME280;53413;49.878;8.142;2023-12-20T05:05:47;100046.28;;;5.57;100.00
66560;BME280;53413;49.878;8.142;2023-12-20T05:08:12;100062.97;;;5.42;100.00
66560;BME280;53413;49.878;8.142;2023-12-20T05:10:37;100063.22;;;5.28;100.00
66560;BME280;53413;49.878;8.142;2023-12-20T05:13:03;100066.03;;;5.14;100.00
66560;BME280;53413;49.878;8.142;2023-12-20T05:15:28;100067.06;;;5.02;100.00
66560;BME280;53413;49.878;8.142;2023-12-20T05:17:53;100065.50;;;4.90;100.00
66560;BME280;53413;49.878;8.142;2023-12-20T05:20:19;100065.72;;;4.74;100.00
66560;BME280;53413;49.878;8.142;2023-12-20T05:22:44;100060.72;;;4.60;100.00
66560;BME280;53413;49.878;8.142;2023-12-20T05:25:10;100063.44;;;4.50;100.00
66560;BME280;53413;49.878;8.142;2023-12-20T05:27:35;100063.44;;;4.50;100.00
66560;BME280;53413;49.878;8.142;2023-12-20T05:30:01;100065.84;;;4.65;100.00
66560;BME280;53413;49.878;8.142;2023-12-20T05:32:26;100061.25;;;4.83;100.00
66560;BME280;53413;49.878;8.142;2023-12-20T05:34:51;100061.84;;;5.02;100.00
66560;BME280;53413;49.878;8.142;2023-12-20T05:37:17;100065.09;;;5.18;100.00
66560;BME280;53413;49.878;8.142;2023-12-20T05:39:42;100068.38;;;5.31;100.00
66560;BME280;53413;49.878;8.142;2023-12-20T05:42:07;100064.72;;;5.41;100.00
66560;BME280;53413;49.878;8.142;2023-12-20T05:44:33;100062.84;;;5.49;100.00
66560;BME280;53413;49.878;8.142;2023-12-20T05:46:58;100062.84;;;5.49;100.00
66560;BME280;53413;49.878;8.142;2023-12-20T05:49:23;100053.47;;;5.42;100.00
66560;BME280;53413;49.878;8.142;2023-12-20T05:51:49;100050.22;;;5.29;100.00
66560;BME280;53413;49.878;8.142;2023-12-20T05:54:16;100050.44;;;5.14;100.00
66560;BME280;53413;49.878;8.142;2023-12-20T05:56:41;100054.94;;;5.02;100.00
66560;BME280;53413;49.878;8.142;2023-12-20T05:59:06;100058.59;;;4.89;100.00
66560;BME280;53413;49.878;8.142;2023-12-20T06:01:32;100057.91;;;4.74;100.00
66560;BME280;53413;49.878;8.142;2023-12-20T06:03:57;100056.41;;;4.59;100.00
66560;BME280;53413;49.878;8.142;2023-12-20T06:06:23;100067.81;;;4.43;100.00
66560;BME280;53413;49.878;8.142;2023-12-20T06:08:49;100072.31;;;4.28;100.00
66560;BME280;53413;49.878;8.142;2023-12-20T06:11:14;100080.22;;;4.18;100.00
66560;BME280;53413;49.878;8.142;2023-12-20T06:13:40;100082.94;;;4.08;100.00
66560;BME280;53413;49.878;8.142;2023-12-20T06:16:05;100083.03;;;3.97;100.00
66560;BME280;53413;49.878;8.142;2023-12-20T06:18:32;100091.75;;;3.90;100.00
66560;BME280;53413;49.878;8.142;2023-12-20T06:20:57;100093.50;;;3.85;100.00
66560;BME280;53413;49.878;8.142;2023-12-20T06:23:23;100091.81;;;3.81;100.00
66560;BME280;53413;49.878;8.142;2023-12-20T06:25:48;100094.47;;;3.78;100.00
66560;BME280;53413;49.878;8.142;2023-12-20T06:28:13;100097.09;;;3.72;100.00
66560;BME280;53413;49.878;8.142;2023-12-20T06:30:40;100090.25;;;3.64;100.00
66560;BME280;53413;49.878;8.142;2023-12-20T06:33:05;100081.63;;;3.59;100.00
66560;BME280;53413;49.878;8.142;2023-12-20T06:35:32;100091.22;;;3.54;100.00
66560;BME280;53413;49.878;8.142;2023-12-20T06:37:57;100104.19;;;3.51;100.00
66560;BME280;53413;49.878;8.142;2023-12-20T06:40:23;100098.16;;;3.47;100.00
66560;BME280;53413;49.878;8.142;2023-12-20T06:42:48;100085.19;;;3.46;100.00
66560;BME280;53413;49.878;8.142;2023-12-20T06:45:14;100086.94;;;3.44;100.00
66560;BME280;53413;49.878;8.142;2023-12-20T06:47:39;100099.91;;;3.42;100.00
66560;BME280;53413;49.878;8.142;2023-12-20T06:50:05;100096.44;;;3.43;100.00
66560;BME280;53413;49.878;8.142;2023-12-20T06:52:30;100104.19;;;3.45;100.00
66560;BME280;53413;49.878;8.142;2023-12-20T06:54:56;100102.47;;;3.44;100.00
66560;BME280;53413;49.878;8.142;2023-12-20T06:57:21;100094.75;;;3.41;100.00
66560;BME280;53413;49.878;8.142;2023-12-20T06:59:47;100081.84;;;3.36;100.00
66560;BME280;53413;49.878;8.142;2023-12-20T07:02:12;100089.63;;;3.33;100.00
66560;BME280;53413;49.878;8.142;2023-12-20T07:04:41;100095.69;;;3.30;100.00
66560;BME280;53413;49.878;8.142;2023-12-20T07:07:06;100097.41;;;3.30;100.00
66560;BME280;53413;49.878;8.142;2023-12-20T07:09:32;100113.84;;;3.27;100.00
66560;BME280;53413;49.878;8.142;2023-12-20T07:11:58;100114.69;;;3.28;100.00
66560;BME280;53413;49.878;8.142;2023-12-20T07:14:23;100096.53;;;3.31;100.00
66560;BME280;53413;49.878;8.142;2023-12-20T07:16:49;100104.25;;;3.42;100.00
66560;BME280;53413;49.878;8.142;2023-12-20T07:19:14;100105.78;;;3.63;100.00
66560;BME280;53413;49.878;8.142;2023-12-20T07:21:39;100112.50;;;3.87;100.00
66560;BME280;53413;49.878;8.142;2023-12-20T07:24:05;100120.94;;;4.11;100.00
66560;BME280;53413;49.878;8.142;2023-12-20T07:26:30;100126.78;;;4.30;100.00
66560;BME280;53413;49.878;8.142;2023-12-20T07:28:55;100124.06;;;4.41;100.00
66560;BME280;53413;49.878;8.142;2023-12-20T07:31:21;100120.66;;;4.39;100.00
66560;BME280;53413;49.878;8.142;2023-12-20T07:33:46;100120.72;;;4.29;100.00
66560;BME280;53413;49.878;8.142;2023-12-20T07:36:12;100126.91;;;4.21;100.00
66560;BME280;53413;49.878;8.142;2023-12-20T07:38:38;100130.41;;;4.13;100.00
66560;BME280;53413;49.878;8.142;2023-12-20T07:41:03;100129.59;;;4.07;100.00
66560;BME280;53413;49.878;8.142;2023-12-20T07:43:28;100129.72;;;3.96;100.00
66560;BME280;53413;49.878;8.142;2023-12-20T07:45:54;100139.25;;;3.91;100.00
66560;BME280;53413;49.878;8.142;2023-12-20T07:48:19;100146.19;;;3.89;100.00
66560;BME280;53413;49.878;8.142;2023-12-20T07:50:44;100148.78;;;3.89;100.00
66560;BME280;53413;49.878;8.142;2023-12-20T07:53:10;100144.47;;;3.89;100.00
66560;BME280;53413;49.878;8.142;2023-12-20T07:55:35;100151.28;;;4.03;100.00
66560;BME280;53413;49.878;8.142;2023-12-20T07:58:00;100155.28;;;4.35;100.00
66560;BME280;53413;49.878;8.142;2023-12-20T08:00:26;100144.41;;;4.80;100.00
66560;BME280;53413;49.878;8.142;2023-12-20T08:02:52;100145.56;;;5.22;100.00
66560;BME280;53413;49.878;8.142;2023-12-20T08:05:17;100140.75;;;5.55;100.00
66560;BME280;53413;49.878;8.142;2023-12-20T08:07:43;100142.09;;;5.80;100.00
66560;BME280;53413;49.878;8.142;2023-12-20T08:10:08;100143.75;;;5.84;100.00
66560;BME280;53413;49.878;8.142;2023-12-20T08:12:34;100152.31;;;5.91;100.00
66560;BME280;53413;49.878;8.142;2023-12-20T08:14:59;100148.50;;;6.13;100.00
66560;BME280;53413;49.878;8.142;2023-12-20T08:17:25;100148.44;;;6.63;100.00
66560;BME280;53413;49.878;8.142;2023-12-20T08:19:51;100149.69;;;6.88;100.00
66560;BME280;53413;49.878;8.142;2023-12-20T08:22:16;100149.63;;;7.30;100.00
66560;BME280;53413;49.878;8.142;2023-12-20T08:24:42;100143.97;;;12.50;98.05
66560;BME280;53413;49.878;8.142;2023-12-20T08:27:07;100137.34;;;13.93;78.02
66560;BME280;53413;49.878;8.142;2023-12-20T08:29:32;100133.03;;;16.48;66.23
66560;BME280;53413;49.878;8.142;2023-12-20T08:31:59;100131.56;;;14.55;66.31
66560;BME280;53413;49.878;8.142;2023-12-20T08:34:25;100137.88;;;12.08;71.64
66560;BME280;53413;49.878;8.142;2023-12-20T08:36:50;100139.16;;;11.55;75.16
66560;BME280;53413;49.878;8.142;2023-12-20T08:39:16;100147.28;;;12.14;74.97
66560;BME280;53413;49.878;8.142;2023-12-20T08:41:41;100139.22;;;16.18;65.28
66560;BME280;53413;49.878;8.142;2023-12-20T08:44:07;100140.47;;;14.52;64.08
66560;BME280;53413;49.878;8.142;2023-12-20T08:46:32;100155.78;;;12.60;68.84
66560;BME280;53413;49.878;8.142;2023-12-20T08:48:58;100155.06;;;10.82;74.02
66560;BME280;53413;49.878;8.142;2023-12-20T08:51:23;100160.00;;;9.62;80.15
66560;BME280;53413;49.878;8.142;2023-12-20T08:53:51;100160.50;;;8.86;84.86
66560;BME280;53413;49.878;8.142;2023-12-20T08:56:16;100161.59;;;8.46;89.42
66560;BME280;53413;49.878;8.142;2023-12-20T08:58:43;100161.25;;;8.27;93.02
66560;BME280;53413;49.878;8.142;2023-12-20T09:01:08;100165.31;;;8.04;95.78
66560;BME280;53413;49.878;8.142;2023-12-20T09:03:34;100157.63;;;7.98;98.33
66560;BME280;53413;49.878;8.142;2023-12-20T09:05:59;100160.56;;;7.84;100.00
66560;BME280;53413;49.878;8.142;2023-12-20T09:08:24;100162.19;;;7.90;100.00
66560;BME280;53413;49.878;8.142;2023-12-20T09:10:50;100175.84;;;7.99;100.00
66560;BME280;53413;49.878;8.142;2023-12-20T09:13:15;100170.41;;;8.07;100.00
66560;BME280;53413;49.878;8.142;2023-12-20T09:15:40;100168.56;;;8.12;100.00
66560;BME280;53413;49.878;8.142;2023-12-20T09:18:06;100171.13;;;8.14;100.00
66560;BME280;53413;49.878;8.142;2023-12-20T09:20:32;100174.09;;;8.00;100.00
66560;BME280;53413;49.878;8.142;2023-12-20T09:22:58;100177.13;;;7.83;100.00
66560;BME280;53413;49.878;8.142;2023-12-20T09:25:23;100167.53;;;7.83;100.00
66560;BME280;53413;49.878;8.142;2023-12-20T09:27:48;100164.81;;;7.88;100.00
66560;BME280;53413;49.878;8.142;2023-12-20T09:30:14;100156.31;;;7.80;100.00
66560;BME280;53413;49.878;8.142;2023-12-20T09:32:39;100163.41;;;7.75;100.00
66560;BME280;53413;49.878;8.142;2023-12-20T09:35:05;100158.25;;;7.72;100.00
66560;BME280;53413;49.878;8.142;2023-12-20T09:37:31;100164.19;;;7.78;100.00
66560;BME280;53413;49.878;8.142;2023-12-20T09:39:57;100158.75;;;7.88;100.00
66560;BME280;53413;49.878;8.142;2023-12-20T09:42:33;100160.22;;;7.98;100.00
66560;BME280;53413;49.878;8.142;2023-12-20T09:45:03;100158.91;;;8.16;100.00
66560;BME280;53413;49.878;8.142;2023-12-20T09:47:33;100159.81;;;8.48;100.00
66560;BME280;53413;49.878;8.142;2023-12-20T09:49:58;100164.75;;;8.90;100.00
66560;BME280;53413;49.878;8.142;2023-12-20T09:52:24;100162.38;;;9.13;100.00
66560;BME280;53413;49.878;8.142;2023-12-20T09:54:52;100170.91;;;9.19;100.00
66560;BME280;53413;49.878;8.142;2023-12-20T09:57:18;100165.53;;;9.24;100.00
66560;BME280;53413;49.878;8.142;2023-12-20T09:59:43;100159.56;;;9.19;100.00
66560;BME280;53413;49.878;8.142;2023-12-20T10:02:12;100162.69;;;9.32;100.00
66560;BME280;53413;49.878;8.142;2023-12-20T10:04:46;100159.00;;;9.66;100.00
66560;BME280;53413;49.878;8.142;2023-12-20T10:07:12;100154.63;;;10.19;100.00
66560;BME280;53413;49.878;8.142;2023-12-20T10:09:38;100154.34;;;10.53;97.92
66560;BME280;53413;49.878;8.142;2023-12-20T10:12:04;100164.69;;;10.82;95.09
66560;BME280;53413;49.878;8.142;2023-12-20T10:14:30;100163.03;;;11.03;93.46
66560;BME280;53413;49.878;8.142;2023-12-20T10:17:02;100159.38;;;11.07;92.17
66560;BME280;53413;49.878;8.142;2023-12-20T10:19:28;100164.47;;;10.88;91.22
66560;BME280;53413;49.878;8.142;2023-12-20T10:21:53;100161.59;;;10.70;93.33
66560;BME280;53413;49.878;8.142;2023-12-20T10:24:19;100161.13;;;10.59;92.44
66560;BME280;53413;49.878;8.142;2023-12-20T10:26:44;100159.19;;;10.40;92.94
66560;BME280;53413;49.878;8.142;2023-12-20T10:29:09;100158.06;;;10.21;92.36
66560;BME280;53413;49.878;8.142;2023-12-20T10:31:35;100142.19;;;10.00;92.93
66560;BME280;53413;49.878;8.142;2023-12-20T10:34:02;100131.00;;;9.95;93.93
66560;BME280;53413;49.878;8.142;2023-12-20T10:36:30;100126.72;;;9.92;93.73
66560;BME280;53413;49.878;8.142;2023-12-20T10:38:56;100125.81;;;9.93;94.79
66560;BME280;53413;49.878;8.142;2023-12-20T10:41:30;100123.59;;;10.08;94.20
66560;BME280;53413;49.878;8.142;2023-12-20T10:44:03;100122.31;;;10.20;92.81
66560;BME280;53413;49.878;8.142;2023-12-20T10:46:34;100128.25;;;10.25;92.23
66560;BME280;53413;49.878;8.142;2023-12-20T10:49:02;100115.09;;;10.26;91.17
66560;BME280;53413;49.878;8.142;2023-12-20T10:51:27;100111.59;;;10.00;91.13
66560;BME280;53413;49.878;8.142;2023-12-20T10:53:55;100103.50;;;10.08;91.60
66560;BME280;53413;49.878;8.142;2023-12-20T10:56:21;100096.19;;;10.18;90.93
66560;BME280;53413;49.878;8.142;2023-12-20T10:58:47;100097.03;;;10.19;90.67
66560;BME280;53413;49.878;8.142;2023-12-20T11:01:14;100101.44;;;10.16;90.66
66560;BME280;53413;49.878;8.142;2023-12-20T11:03:48;100101.66;;;10.36;88.72
66560;BME280;53413;49.878;8.142;2023-12-20T11:06:41;100103.94;;;10.46;89.18
66560;BME280;53413;49.878;8.142;2023-12-20T11:09:21;100105.88;;;10.65;88.15
66560;BME280;53413;49.878;8.142;2023-12-20T11:12:20;100110.38;;;10.85;86.80
66560;BME280;53413;49.878;8.142;2023-12-20T11:14:53;100099.53;;;10.94;85.30
66560;BME280;53413;49.878;8.142;2023-12-20T11:17:21;100100.84;;;11.06;86.43
66560;BME280;53413;49.878;8.142;2023-12-20T11:22:19;100092.41;;;10.98;84.03
66560;BME280;53413;49.878;8.142;2023-12-20T11:24:45;100099.53;;;10.71;83.82
66560;BME280;53413;49.878;8.142;2023-12-20T11:27:13;100092.72;;;10.43;83.59
66560;BME280;53413;49.878;8.142;2023-12-20T11:29:38;100094.88;;;10.30;83.13
66560;BME280;53413;49.878;8.142;2023-12-20T11:34:55;100093.00;;;10.10;84.90
66560;BME280;53413;49.878;8.142;2023-12-20T11:37:21;100100.66;;;9.89;84.53
66560;BME280;53413;49.878;8.142;2023-12-20T11:40:00;100093.03;;;9.83;87.29
66560;BME280;53413;49.878;8.142;2023-12-20T11:42:25;100094.44;;;9.66;86.23
66560;BME280;53413;49.878;8.142;2023-12-20T11:44:51;100098.09;;;9.61;87.60
66560;BME280;53413;49.878;8.142;2023-12-20T11:47:16;100097.44;;;9.54;88.43
66560;BME280;53413;49.878;8.142;2023-12-20T11:49:44;100110.09;;;9.41;86.75
66560;BME280;53413;49.878;8.142;2023-12-20T11:52:12;100113.16;;;9.26;87.19
66560;BME280;53413;49.878;8.142;2023-12-20T11:54:37;100116.31;;;9.08;87.95
66560;BME280;53413;49.878;8.142;2023-12-20T11:57:02;100116.72;;;8.95;88.44
66560;BME280;53413;49.878;8.142;2023-12-20T11:59:28;100108.53;;;8.77;89.35
66560;BME280;53413;49.878;8.142;2023-12-20T12:01:53;100107.91;;;8.69;89.66
66560;BME280;53413;49.878;8.142;2023-12-20T12:04:21;100100.34;;;8.59;90.00
66560;BME280;53413;49.878;8.142;2023-12-20T12:06:46;100096.78;;;8.60;90.57
66560;BME280;53413;49.878;8.142;2023-12-20T12:09:13;100091.56;;;8.60;89.59
66560;BME280;53413;49.878;8.142;2023-12-20T12:11:38;100098.56;;;8.60;90.24
66560;BME280;53413;49.878;8.142;2023-12-20T12:14:04;100083.50;;;8.70;90.66
66560;BME280;53413;49.878;8.142;2023-12-20T12:16:29;100081.94;;;8.92;89.65
66560;BME280;53413;49.878;8.142;2023-12-20T12:18:58;100069.19;;;9.10;89.71
66560;BME280;53413;49.878;8.142;2023-12-20T12:21:24;100056.53;;;9.24;89.01
66560;BME280;53413;49.878;8.142;2023-12-20T12:23:50;100057.06;;;9.36;88.55
66560;BME280;53413;49.878;8.142;2023-12-20T12:26:15;100058.97;;;9.58;88.16
66560;BME280;53413;49.878;8.142;2023-12-20T12:28:41;100054.13;;;9.72;87.97
66560;BME280;53413;49.878;8.142;2023-12-20T12:31:08;100050.19;;;9.85;87.15
66560;BME280;53413;49.878;8.142;2023-12-20T12:33:34;100058.94;;;9.84;87.32
66560;BME280;53413;49.878;8.142;2023-12-20T12:36:00;100055.31;;;9.89;87.18
66560;BME280;53413;49.878;8.142;2023-12-20T12:38:26;100046.81;;;10.07;87.30
66560;BME280;53413;49.878;8.142;2023-12-20T12:40:52;100048.81;;;10.24;86.99
66560;BME280;53413;49.878;8.142;2023-12-20T12:43:19;100040.63;;;10.34;86.04
66560;BME280;53413;49.878;8.142;2023-12-20T12:45:44;100036.41;;;10.29;85.07
66560;BME280;53413;49.878;8.142;2023-12-20T12:48:10;100031.28;;;10.26;84.17
66560;BME280;53413;49.878;8.142;2023-12-20T12:50:35;100023.84;;;10.15;84.80
66560;BME280;53413;49.878;8.142;2023-12-20T12:53:01;100009.69;;;9.96;84.76
66560;BME280;53413;49.878;8.142;2023-12-20T12:55:27;99999.25;;;9.69;86.05